Time;durP1;ratioP1;P1;durP2;ratioP2;P2;SDS_P1;SDS_P2;PMS_P1;PMS_P2;Temp;Humidity;BMP_temperature;BMP_pressure;BME280_temperature;BME280_humidity;BME280_pressure;Samples;Min_cycle;Max_cycle;Signal;HPM_P1;HPM_P2
2021/12/14 00:01:35;;;;;;;30.03;16.20;;;9.10;99.90;;;;;;4945938;28;20685;-68
2021/12/14 00:04:08;;;;;;;27.53;16.70;;;9.10;99.90;;;;;;4948823;28;20457;-69
2021/12/14 00:06:35;;;;;;;30.43;17.33;;;9.20;99.90;;;;;;5029595;28;20454;-68
2021/12/14 00:09:02;;;;;;;30.57;17.43;;;9.20;99.90;;;;;;4956130;28;20801;-69
2021/12/14 00:14:14;;;;;;;27.10;15.93;;;9.20;99.90;;;;;;4945381;28;20427;-68
2021/12/14 00:16:42;;;;;;;28.90;16.47;;;9.20;99.90;;;;;;4938831;28;20429;-69
2021/12/14 00:19:08;;;;;;;26.70;16.20;;;9.30;99.90;;;;;;4928866;28;20437;-68
2021/12/14 00:21:34;;;;;;;29.50;16.77;;;9.20;99.90;;;;;;4944882;28;20467;-69
2021/12/14 00:24:10;;;;;;;29.00;16.70;;;9.30;99.90;;;;;;4943608;28;20180;-68
2021/12/14 00:26:39;;;;;;;29.13;16.77;;;9.20;99.90;;;;;;4989764;28;20257;-69
2021/12/14 00:29:06;;;;;;;27.27;15.93;;;9.20;99.90;;;;;;4935072;28;20512;-69
2021/12/14 00:31:34;;;;;;;31.40;17.83;;;9.20;99.90;;;;;;4945603;28;20452;-69
2021/12/14 00:34:02;;;;;;;29.33;17.20;;;9.20;99.90;;;;;;4953595;28;20461;-69
2021/12/14 00:36:28;;;;;;;31.17;18.30;;;9.20;99.90;;;;;;4953608;28;20755;-69
2021/12/14 00:38:56;;;;;;;29.00;17.23;;;9.10;99.90;;;;;;4945258;28;20424;-68
2021/12/14 00:41:34;;;;;;;28.80;17.40;;;9.10;99.90;;;;;;4949851;28;20271;-69
2021/12/14 00:44:00;;;;;;;33.07;17.93;;;9.10;99.90;;;;;;4948406;28;20420;-68
2021/12/14 00:46:26;;;;;;;28.63;16.60;;;9.10;99.90;;;;;;4949432;28;20408;-69
2021/12/14 00:48:53;;;;;;;29.53;17.20;;;9.10;99.90;;;;;;4947038;28;20423;-69
2021/12/14 00:51:22;;;;;;;30.40;16.70;;;9.10;99.90;;;;;;4929906;28;21306;-69
2021/12/14 00:53:49;;;;;;;28.80;16.47;;;9.10;99.90;;;;;;4946755;28;20434;-69
2021/12/14 00:56:15;;;;;;;31.77;17.27;;;9.10;99.90;;;;;;4949773;28;20404;-69
2021/12/14 00:58:42;;;;;;;33.60;18.43;;;9.00;99.90;;;;;;4949249;28;20419;-69
2021/12/14 01:01:18;;;;;;;31.43;18.63;;;9.00;99.90;;;;;;4947908;28;20486;-68
2021/12/14 01:03:49;;;;;;;35.73;18.67;;;9.00;99.90;;;;;;4942231;28;20800;-68
2021/12/14 01:06:16;;;;;;;34.77;18.20;;;9.00;99.90;;;;;;4957315;28;20432;-69
2021/12/14 01:08:44;;;;;;;32.83;17.30;;;8.90;99.90;;;;;;4948325;28;20423;-69
2021/12/14 01:11:17;;;;;;;35.00;17.47;;;8.90;99.90;;;;;;4933074;28;20934;-69
2021/12/14 01:13:53;;;;;;;31.10;17.77;;;8.90;99.90;;;;;;4987090;28;20428;-69
2021/12/14 01:16:37;;;;;;;33.53;18.17;;;9.00;99.90;;;;;;4952754;28;20459;-69
2021/12/14 01:19:18;;;;;;;33.60;18.30;;;8.90;99.90;;;;;;4938154;28;20423;-69
2021/12/14 01:27:30;;;;;;;39.10;19.70;;;8.80;99.90;;;;;;4975788;28;20438;-68
2021/12/14 01:29:56;;;;;;;39.03;18.20;;;8.80;99.90;;;;;;4947069;28;20547;-70
2021/12/14 01:32:26;;;;;;;37.50;18.40;;;8.80;99.90;;;;;;4929764;28;20578;-69
2021/12/14 01:34:51;;;;;;;36.47;18.63;;;8.80;99.90;;;;;;4947434;28;20474;-68
2021/12/14 01:37:22;;;;;;;41.93;19.70;;;8.80;99.90;;;;;;4948998;28;20898;-69
2021/12/14 01:40:06;;;;;;;32.07;17.67;;;8.90;99.90;;;;;;4940607;28;20240;-69
2021/12/14 01:42:38;;;;;;;30.73;17.60;;;8.90;99.90;;;;;;4937945;28;20837;-69
2021/12/14 01:45:28;;;;;;;36.07;18.20;;;8.90;99.90;;;;;;4939653;28;20495;-68
2021/12/14 01:47:58;;;;;;;29.77;17.00;;;8.80;99.90;;;;;;4948652;28;20415;-69
2021/12/14 01:50:33;;;;;;;30.47;16.90;;;8.80;99.90;;;;;;4947621;28;20509;-69
2021/12/14 01:52:59;;;;;;;31.47;17.53;;;8.80;99.90;;;;;;4993509;28;20457;-69
2021/12/14 01:55:31;;;;;;;31.17;16.50;;;8.80;99.90;;;;;;4938312;28;20446;-69
2021/12/14 01:57:59;;;;;;;32.07;15.53;;;8.80;99.90;;;;;;4947169;28;20412;-69
2021/12/14 02:00:46;;;;;;;25.70;15.07;;;8.80;99.90;;;;;;4953404;28;20965;-69
2021/12/14 02:03:17;;;;;;;23.50;13.80;;;8.80;99.90;;;;;;4931254;29;20543;-68
2021/12/14 02:05:50;;;;;;;23.90;14.30;;;8.90;99.90;;;;;;4950570;28;20419;-68
2021/12/14 02:08:22;;;;;;;21.50;14.20;;;8.90;99.90;;;;;;4946277;29;20759;-68
2021/12/14 02:10:49;;;;;;;22.90;13.20;;;8.90;99.90;;;;;;4941932;28;20444;-68
2021/12/14 02:13:42;;;;;;;24.30;14.97;;;8.90;99.90;;;;;;4943432;28;20842;-68
2021/12/14 02:16:10;;;;;;;26.30;13.83;;;8.90;99.90;;;;;;4929339;28;20417;-68
2021/12/14 02:18:41;;;;;;;20.43;13.03;;;8.90;99.90;;;;;;4937970;28;20434;-68
2021/12/14 02:21:10;;;;;;;19.67;12.50;;;8.90;99.90;;;;;;4934176;29;20472;-69
2021/12/14 02:23:40;;;;;;;20.73;13.10;;;9.00;99.90;;;;;;4930777;28;20421;-69
2021/12/14 02:26:10;;;;;;;19.67;12.43;;;9.00;99.90;;;;;;4945166;28;20424;-69
2021/12/14 02:28:36;;;;;;;20.97;13.83;;;9.00;99.90;;;;;;4940691;28;20575;-68
2021/12/14 02:31:05;;;;;;;18.47;12.50;;;9.00;99.90;;;;;;4972271;28;20533;-69
2021/12/14 02:33:34;;;;;;;26.10;12.93;;;8.90;99.90;;;;;;4942313;28;20425;-69
2021/12/14 02:36:03;;;;;;;18.97;12.67;;;9.00;99.90;;;;;;4940400;28;20472;-70
2021/12/14 02:38:29;;;;;;;20.63;12.30;;;8.90;99.90;;;;;;4997322;28;20474;-69
2021/12/14 02:41:06;;;;;;;22.83;11.50;;;8.90;99.90;;;;;;4961453;28;20476;-69
2021/12/14 02:44:09;;;;;;;20.10;11.20;;;8.90;99.90;;;;;;4946191;28;20318;-69
2021/12/14 02:46:43;;;;;;;20.10;11.17;;;8.90;99.90;;;;;;4938102;28;20759;-69
2021/12/14 02:49:12;;;;;;;20.83;11.80;;;8.70;99.90;;;;;;4946096;28;20962;-68
2021/12/14 02:51:45;;;;;;;17.73;11.67;;;8.70;99.90;;;;;;4947204;28;20443;-68
2021/12/14 02:54:15;;;;;;;19.13;12.17;;;8.80;99.90;;;;;;4948011;28;20988;-69
2021/12/14 02:56:44;;;;;;;19.07;11.50;;;8.80;99.90;;;;;;4947742;28;20413;-68
2021/12/14 02:59:19;;;;;;;20.90;11.77;;;8.80;99.90;;;;;;4946133;28;20464;-70
2021/12/14 03:01:47;;;;;;;17.07;11.50;;;8.80;99.90;;;;;;4927526;28;20471;-68
2021/12/14 03:04:14;;;;;;;17.30;10.67;;;8.80;99.90;;;;;;4929080;28;20490;-69
2021/12/14 03:06:48;;;;;;;19.10;11.60;;;8.70;99.90;;;;;;4937384;28;20407;-69
2021/12/14 03:09:34;;;;;;;17.47;11.43;;;8.70;99.90;;;;;;4946425;28;20477;-68
2021/12/14 03:12:11;;;;;;;16.27;10.80;;;8.70;99.90;;;;;;4967009;28;20407;-68
2021/12/14 03:14:39;;;;;;;19.73;11.37;;;8.60;99.90;;;;;;5008167;28;20762;-68
2021/12/14 03:17:05;;;;;;;18.43;11.50;;;8.60;99.90;;;;;;4943078;28;20437;-69
2021/12/14 03:19:30;;;;;;;18.20;12.40;;;8.60;99.90;;;;;;4931312;29;20502;-69
2021/12/14 03:21:56;;;;;;;16.60;11.70;;;8.60;99.90;;;;;;4987618;28;20318;-69
2021/12/14 03:24:23;;;;;;;18.67;12.53;;;8.60;99.90;;;;;;4944070;28;20180;-69
2021/12/14 03:26:52;;;;;;;19.10;11.47;;;8.60;99.90;;;;;;4947186;28;20443;-68
2021/12/14 03:29:30;;;;;;;21.70;12.63;;;8.60;99.90;;;;;;4955820;28;20585;-69
2021/12/14 03:31:58;;;;;;;20.80;12.27;;;8.60;99.90;;;;;;4947045;28;20951;-68
2021/12/14 03:34:34;;;;;;;21.97;13.13;;;8.50;99.90;;;;;;4943377;28;20511;-69
2021/12/14 03:37:02;;;;;;;22.53;13.13;;;8.50;99.90;;;;;;4951775;28;20414;-69
2021/12/14 03:39:35;;;;;;;22.77;13.57;;;8.50;99.90;;;;;;4942215;28;20521;-69
2021/12/14 03:42:14;;;;;;;19.80;13.33;;;8.50;99.90;;;;;;4946908;28;20570;-69
2021/12/14 03:44:44;;;;;;;22.00;13.20;;;8.40;99.90;;;;;;4943092;28;20526;-69
2021/12/14 03:47:26;;;;;;;20.17;13.73;;;8.40;99.90;;;;;;4925924;28;20409;-69
2021/12/14 03:49:58;;;;;;;21.27;14.27;;;8.50;99.90;;;;;;4943530;29;21146;-68
2021/12/14 03:52:31;;;;;;;22.13;14.10;;;8.50;99.90;;;;;;4987597;28;20403;-68
2021/12/14 03:54:59;;;;;;;25.73;14.53;;;8.50;99.90;;;;;;4951178;28;20419;-69
2021/12/14 03:57:25;;;;;;;24.87;14.00;;;8.50;99.90;;;;;;4959474;28;20491;-69
2021/12/14 03:59:51;;;;;;;23.50;15.00;;;8.50;99.90;;;;;;4941485;28;20459;-69
2021/12/14 04:02:18;;;;;;;22.90;14.50;;;8.50;99.90;;;;;;4946564;28;20726;-69
2021/12/14 04:04:51;;;;;;;27.00;15.57;;;8.50;99.90;;;;;;4933167;28;20663;-69
2021/12/14 04:07:18;;;;;;;30.43;15.43;;;8.50;99.90;;;;;;4949794;28;20480;-69
2021/12/14 04:09:44;;;;;;;25.63;15.10;;;8.40;99.90;;;;;;4956219;28;20449;-69
2021/12/14 04:12:13;;;;;;;26.47;15.90;;;8.40;99.90;;;;;;4965594;28;20916;-69
2021/12/14 04:14:45;;;;;;;25.10;15.40;;;8.30;99.90;;;;;;4953632;28;20181;-69
2021/12/14 04:17:12;;;;;;;25.93;16.83;;;8.20;99.90;;;;;;4935524;28;20505;-69
2021/12/14 04:19:40;;;;;;;28.13;14.93;;;8.20;99.90;;;;;;4938747;28;20608;-69
2021/12/14 04:22:11;;;;;;;33.47;17.03;;;8.20;99.90;;;;;;4945976;28;20408;-69
2021/12/14 04:24:40;;;;;;;29.67;15.93;;;8.10;99.90;;;;;;4935164;28;20429;-69
2021/12/14 04:27:18;;;;;;;32.73;17.13;;;8.20;99.90;;;;;;4925638;28;20994;-69
2021/12/14 04:29:44;;;;;;;32.37;17.20;;;8.10;99.90;;;;;;4953817;28;20451;-68
2021/12/14 04:32:12;;;;;;;27.33;16.50;;;8.10;99.90;;;;;;5004833;28;20407;-69
2021/12/14 04:34:39;;;;;;;29.00;16.23;;;8.10;99.90;;;;;;4998174;28;20272;-68
2021/12/14 04:37:05;;;;;;;25.23;16.33;;;8.10;99.90;;;;;;4950428;28;20407;-69
2021/12/14 04:39:40;;;;;;;30.33;18.20;;;8.10;99.90;;;;;;4957626;28;20445;-69
2021/12/14 04:53:22;;;;;;;32.73;19.13;;;7.90;99.90;;;;;;4926494;29;20455;-69
2021/12/14 04:55:51;;;;;;;32.67;18.30;;;7.90;99.90;;;;;;4927918;29;20424;-69
2021/12/14 04:58:45;;;;;;;40.57;18.90;;;7.90;99.90;;;;;;4926844;28;20981;-68
2021/12/14 05:01:12;;;;;;;29.00;18.63;;;7.90;99.90;;;;;;4926749;29;20546;-69
2021/12/14 05:03:59;;;;;;;31.17;17.73;;;7.90;99.90;;;;;;4927428;28;20425;-69
2021/12/14 05:06:33;;;;;;;31.20;19.27;;;8.00;99.90;;;;;;4931333;28;20459;-69
2021/12/14 05:09:27;;;;;;;40.53;19.00;;;8.10;99.90;;;;;;4952306;28;20523;-69
2021/12/14 05:12:04;;;;;;;29.03;17.83;;;8.10;99.90;;;;;;4949145;28;20491;-69
2021/12/14 05:14:31;;;;;;;31.57;19.00;;;8.10;99.90;;;;;;5001001;28;21002;-69
2021/12/14 05:16:59;;;;;;;38.20;19.80;;;8.10;99.90;;;;;;4948172;28;20434;-68
2021/12/14 05:19:27;;;;;;;31.73;19.07;;;8.00;99.90;;;;;;4947790;28;20506;-68
2021/12/14 05:22:02;;;;;;;31.97;18.93;;;8.00;99.90;;;;;;4937721;28;20551;-69
2021/12/14 05:24:29;;;;;;;32.43;19.60;;;8.10;99.90;;;;;;4937389;29;20447;-69
2021/12/14 05:26:59;;;;;;;31.57;19.50;;;8.10;99.90;;;;;;4931863;28;20815;-69
2021/12/14 05:29:26;;;;;;;34.53;19.63;;;8.00;99.90;;;;;;4963334;28;20463;-69
2021/12/14 05:31:52;;;;;;;35.93;19.77;;;8.00;99.90;;;;;;4938949;28;20425;-69
2021/12/14 05:34:24;;;;;;;35.13;19.67;;;8.00;99.90;;;;;;4929045;28;20409;-69
2021/12/14 05:36:50;;;;;;;32.90;19.90;;;7.90;99.90;;;;;;4941802;28;20431;-69
2021/12/14 05:39:45;;;;;;;40.93;19.10;;;7.90;99.90;;;;;;5001724;28;20585;-68
2021/12/14 05:44:44;;;;;;;33.90;19.33;;;7.80;99.90;;;;;;4929680;28;20791;-69
2021/12/14 05:47:13;;;;;;;36.60;21.20;;;7.90;99.90;;;;;;4942271;29;20420;-68
2021/12/14 05:49:42;;;;;;;35.47;20.33;;;7.90;99.90;;;;;;4960195;28;20431;-69
2021/12/14 05:52:12;;;;;;;38.03;21.53;;;7.90;99.90;;;;;;4945784;28;20931;-68
2021/12/14 05:54:39;;;;;;;35.50;19.97;;;7.90;99.90;;;;;;4988841;28;20416;-69
2021/12/14 05:57:07;;;;;;;40.57;21.27;;;7.90;99.90;;;;;;4945832;28;20427;-69
2021/12/14 05:59:34;;;;;;;43.33;20.57;;;7.90;99.90;;;;;;4953829;28;20460;-70
2021/12/14 06:02:03;;;;;;;42.07;19.77;;;7.80;99.90;;;;;;4973843;28;20562;-68
2021/12/14 06:04:38;;;;;;;46.27;23.00;;;7.80;99.90;;;;;;4945099;28;20412;-70
2021/12/14 06:07:05;;;;;;;38.20;20.90;;;7.70;99.90;;;;;;4948360;28;20427;-68
2021/12/14 06:09:35;;;;;;;45.67;22.23;;;7.70;99.90;;;;;;4987422;28;20441;-69
2021/12/14 06:12:09;;;;;;;39.70;21.50;;;7.70;99.90;;;;;;4943708;28;20740;-69
2021/12/14 06:14:41;;;;;;;38.67;21.60;;;7.80;99.90;;;;;;4940708;29;20899;-71
2021/12/14 06:17:07;;;;;;;41.63;22.27;;;7.70;99.90;;;;;;4940956;28;20417;-69
2021/12/14 15:44:20;;;;;;;68.33;27.57;;;6.30;99.90;;;;;;5064948;28;20599;-68
2021/12/14 15:46:49;;;;;;;67.20;26.73;;;6.30;99.90;;;;;;5052727;28;20527;-69
2021/12/14 15:49:29;;;;;;;69.43;26.90;;;6.60;99.90;;;;;;5042225;28;20478;-68
2021/12/14 15:51:59;;;;;;;70.13;25.33;;;6.70;99.90;;;;;;5029128;28;20416;-69
2021/12/14 15:54:35;;;;;;;61.97;24.53;;;6.80;99.90;;;;;;5038325;28;20428;-69
2021/12/14 15:57:12;;;;;;;61.40;27.23;;;7.00;99.90;;;;;;5044650;28;20423;-68
2021/12/14 15:59:42;;;;;;;59.47;25.50;;;7.20;99.90;;;;;;5030673;28;20444;-69
2021/12/14 16:02:20;;;;;;;62.77;25.93;;;7.20;99.90;;;;;;5037543;28;20795;-68
2021/12/14 16:04:50;;;;;;;72.17;26.10;;;7.30;99.90;;;;;;5056798;28;20427;-67
2021/12/14 16:07:19;;;;;;;60.27;25.13;;;7.30;99.90;;;;;;5026485;28;20453;-68
2021/12/14 16:09:49;;;;;;;70.93;27.57;;;7.40;99.90;;;;;;5059799;28;20961;-69
2021/12/14 16:15:09;;;;;;;62.77;25.67;;;7.50;99.90;;;;;;5038480;28;20455;-68
2021/12/14 16:18:00;;;;;;;64.50;27.40;;;7.40;99.90;;;;;;5048788;28;20443;-69
2021/12/14 16:20:34;;;;;;;59.90;25.83;;;7.50;99.90;;;;;;5043421;28;20519;-69
2021/12/14 16:23:02;;;;;;;59.97;25.30;;;7.50;99.90;;;;;;5044511;28;20483;-69
2021/12/14 16:25:35;;;;;;;48.70;25.10;;;7.50;99.90;;;;;;5045280;28;20412;-69
2021/12/14 16:28:06;;;;;;;53.33;25.63;;;7.50;99.90;;;;;;5043762;28;20458;-69
2021/12/14 16:30:39;;;;;;;52.33;26.23;;;7.50;99.90;;;;;;5042968;28;20938;-69
2021/12/14 16:33:13;;;;;;;56.17;24.50;;;7.40;99.90;;;;;;5035121;28;20919;-69
2021/12/14 16:36:00;;;;;;;53.60;23.40;;;7.40;99.90;;;;;;5024878;28;20437;-69
2021/12/14 16:38:37;;;;;;;53.47;23.60;;;7.40;99.90;;;;;;5043073;28;20431;-70
2021/12/14 16:41:06;;;;;;;54.87;25.20;;;7.30;99.90;;;;;;5043058;28;20434;-69
2021/12/14 16:43:42;;;;;;;60.53;24.97;;;7.30;99.90;;;;;;5042843;28;20460;-68
2021/12/14 16:46:11;;;;;;;53.47;26.63;;;7.40;99.90;;;;;;5048230;28;20566;-69
2021/12/14 16:48:39;;;;;;;53.33;23.03;;;7.30;99.90;;;;;;5042070;28;20428;-68
2021/12/14 16:51:09;;;;;;;53.47;25.40;;;7.30;99.90;;;;;;5024463;28;20531;-67
2021/12/14 16:53:47;;;;;;;53.90;24.90;;;7.30;99.90;;;;;;5032228;28;20423;-69
2021/12/14 16:56:17;;;;;;;54.80;24.70;;;7.40;99.90;;;;;;5031410;28;20910;-69
2021/12/14 16:58:43;;;;;;;59.07;24.80;;;7.30;99.90;;;;;;5023452;28;20456;-68
2021/12/14 17:01:11;;;;;;;53.07;23.80;;;7.30;99.90;;;;;;5011478;28;20744;-68
2021/12/14 17:03:39;;;;;;;54.73;25.00;;;7.40;99.90;;;;;;5028087;28;20539;-68
2021/12/14 17:06:10;;;;;;;55.73;25.97;;;7.40;99.90;;;;;;5030302;28;21214;-67
2021/12/14 17:08:39;;;;;;;55.80;24.60;;;7.40;99.90;;;;;;5029757;28;20795;-69
2021/12/14 17:11:08;;;;;;;53.00;24.57;;;7.50;99.90;;;;;;5027349;28;20977;-69
2021/12/14 17:13:39;;;;;;;50.57;24.97;;;7.50;99.90;;;;;;5028630;28;20417;-69
2021/12/14 17:16:07;;;;;;;52.87;24.67;;;7.50;99.90;;;;;;5037071;28;20519;-69
2021/12/14 17:18:40;;;;;;;54.53;24.63;;;7.60;99.90;;;;;;5030410;28;20482;-70
2021/12/14 17:21:08;;;;;;;57.90;24.70;;;7.60;99.90;;;;;;5029245;28;20531;-67
2021/12/14 17:23:38;;;;;;;56.87;24.07;;;7.50;99.90;;;;;;5030201;28;20456;-69
2021/12/14 17:26:12;;;;;;;46.60;23.93;;;7.50;99.90;;;;;;5012157;28;20418;-69
2021/12/14 17:28:42;;;;;;;65.37;26.37;;;7.40;99.90;;;;;;5042453;28;20880;-69
2021/12/14 17:31:11;;;;;;;55.57;24.13;;;7.40;99.90;;;;;;5012818;28;20885;-70
2021/12/14 17:33:39;;;;;;;54.97;24.07;;;7.30;99.90;;;;;;5010365;28;20413;-70
2021/12/14 17:36:17;;;;;;;55.90;25.97;;;7.30;99.90;;;;;;5044474;28;20922;-69
2021/12/14 17:38:43;;;;;;;57.90;24.10;;;7.30;99.90;;;;;;5030393;28;20751;-70
2021/12/14 17:41:09;;;;;;;58.20;25.63;;;7.30;99.90;;;;;;5030397;28;20424;-72
2021/12/14 17:43:41;;;;;;;66.40;29.50;;;7.30;99.90;;;;;;5028146;28;20923;-70
2021/12/14 17:46:07;;;;;;;50.50;24.97;;;7.40;99.90;;;;;;5030208;28;20212;-71
2021/12/14 17:48:36;;;;;;;57.87;25.33;;;7.30;99.90;;;;;;5047046;28;20452;-71
2021/12/14 17:51:06;;;;;;;61.53;25.77;;;7.20;99.90;;;;;;5041363;28;20229;-70
2021/12/14 17:53:34;;;;;;;57.10;25.87;;;7.10;99.90;;;;;;5029348;28;20432;-71
2021/12/14 17:56:03;;;;;;;53.40;25.03;;;7.10;99.90;;;;;;5018006;28;20822;-69
2021/12/14 17:58:40;;;;;;;51.07;25.50;;;7.10;99.90;;;;;;5009463;28;20416;-70
2021/12/14 18:01:14;;;;;;;57.43;26.60;;;7.20;99.90;;;;;;5008961;28;20417;-70
2021/12/14 18:03:44;;;;;;;61.27;25.63;;;7.10;99.90;;;;;;5009472;28;20477;-69
2021/12/14 18:06:18;;;;;;;57.33;24.73;;;7.00;99.90;;;;;;5007787;28;20501;-69
2021/12/14 18:08:51;;;;;;;48.20;26.20;;;7.00;99.90;;;;;;5008879;28;20808;-70
2021/12/14 18:11:26;;;;;;;59.00;24.63;;;7.00;99.90;;;;;;5010305;28;20429;-70
2021/12/14 18:13:59;;;;;;;54.67;25.80;;;7.00;99.90;;;;;;5010667;28;20420;-72
2021/12/14 18:16:36;;;;;;;57.37;25.60;;;7.00;99.90;;;;;;5037938;28;20511;-70
2021/12/14 18:19:06;;;;;;;53.90;24.27;;;6.90;99.90;;;;;;5048599;28;20408;-69
2021/12/14 18:21:37;;;;;;;50.07;24.67;;;6.90;99.90;;;;;;5034746;28;20424;-69
2021/12/14 18:24:16;;;;;;;50.73;24.17;;;6.90;99.90;;;;;;5041246;28;20464;-69
2021/12/14 18:26:47;;;;;;;50.93;25.23;;;7.00;99.90;;;;;;5009316;28;20397;-70
2021/12/14 18:29:17;;;;;;;52.50;24.47;;;7.00;99.90;;;;;;5009928;28;20444;-70
2021/12/14 18:31:50;;;;;;;49.47;24.90;;;6.90;99.90;;;;;;5028498;28;20424;-70
2021/12/14 18:34:17;;;;;;;53.73;25.23;;;7.00;99.90;;;;;;5026370;28;20416;-69
2021/12/14 18:36:54;;;;;;;63.60;27.83;;;7.00;99.90;;;;;;5026596;28;20739;-69
2021/12/14 18:39:27;;;;;;;49.60;25.30;;;7.10;99.90;;;;;;5026051;28;20463;-70
2021/12/14 18:42:06;;;;;;;50.63;24.57;;;7.10;99.90;;;;;;5028572;28;20507;-71
2021/12/14 18:44:32;;;;;;;49.37;24.03;;;7.20;99.90;;;;;;5029706;28;20420;-71
2021/12/14 18:47:15;;;;;;;50.60;24.27;;;7.10;99.90;;;;;;5040173;28;20450;-70
2021/12/14 18:49:45;;;;;;;71.67;33.63;;;7.10;99.90;;;;;;5035688;28;20437;-69
2021/12/14 18:52:25;;;;;;;47.80;24.80;;;7.00;99.90;;;;;;5028192;28;20399;-71
2021/12/14 18:54:57;;;;;;;50.90;25.40;;;7.00;99.90;;;;;;5028371;28;20415;-70
2021/12/14 18:57:24;;;;;;;52.40;26.43;;;7.10;99.90;;;;;;5028436;28;20886;-68
2021/12/14 18:59:58;;;;;;;57.53;24.83;;;7.10;99.90;;;;;;5026281;28;20779;-70
2021/12/14 19:02:30;;;;;;;55.63;26.43;;;7.10;99.90;;;;;;5028521;28;20450;-69
2021/12/14 19:05:00;;;;;;;50.47;25.33;;;7.20;99.90;;;;;;5025965;28;20439;-69
2021/12/14 19:07:35;;;;;;;55.50;26.60;;;6.90;99.90;;;;;;5026562;28;20794;-69
2021/12/14 19:10:03;;;;;;;54.37;26.50;;;7.10;99.90;;;;;;5026348;28;20438;-69
2021/12/14 19:12:32;;;;;;;55.37;25.73;;;7.10;99.90;;;;;;5028120;28;20404;-69
2021/12/14 19:15:11;;;;;;;55.57;26.10;;;7.20;99.90;;;;;;5027506;28;20416;-69
2021/12/14 19:17:41;;;;;;;58.23;26.37;;;7.20;99.90;;;;;;5036211;28;20826;-69
2021/12/14 19:20:08;;;;;;;50.30;25.60;;;7.10;99.90;;;;;;5026219;28;20787;-69
2021/12/14 19:22:45;;;;;;;60.50;27.07;;;7.10;99.90;;;;;;5024328;28;20457;-69
2021/12/14 19:25:17;;;;;;;53.53;24.37;;;7.10;99.90;;;;;;5024558;28;20448;-69
2021/12/14 19:27:43;;;;;;;53.50;24.63;;;7.10;99.90;;;;;;5027968;28;20393;-69
2021/12/14 19:30:14;;;;;;;51.00;23.83;;;7.10;99.90;;;;;;5027701;28;20442;-69
2021/12/14 19:32:44;;;;;;;56.13;26.87;;;7.00;99.90;;;;;;5028497;28;20923;-70
2021/12/14 19:35:15;;;;;;;47.20;23.70;;;7.10;99.90;;;;;;5012765;28;20970;-69
2021/12/14 19:37:49;;;;;;;48.70;25.33;;;7.10;99.90;;;;;;5007858;28;20513;-69
2021/12/14 19:40:38;;;;;;;45.63;22.03;;;7.10;99.90;;;;;;5042696;28;20471;-70
2021/12/14 19:43:10;;;;;;;45.87;23.20;;;7.10;99.90;;;;;;5026608;28;20517;-71
2021/12/14 19:45:36;;;;;;;58.73;24.43;;;7.10;99.90;;;;;;5035328;28;20466;-69
2021/12/14 19:48:15;;;;;;;51.07;23.97;;;7.10;99.90;;;;;;5040903;28;20443;-69
2021/12/14 19:50:42;;;;;;;52.67;25.40;;;7.00;99.90;;;;;;5034270;28;20267;-69
2021/12/14 19:53:11;;;;;;;49.17;24.00;;;7.00;99.90;;;;;;5019015;28;20455;-70
2021/12/14 19:55:40;;;;;;;49.20;23.03;;;7.00;99.90;;;;;;5026867;28;20806;-69
2021/12/14 19:58:14;;;;;;;48.60;23.83;;;7.00;99.90;;;;;;5028058;28;20405;-70
2021/12/14 20:00:49;;;;;;;53.43;24.60;;;7.00;99.90;;;;;;5025881;28;20528;-70
2021/12/14 20:03:21;;;;;;;52.00;24.27;;;7.00;99.90;;;;;;5026260;28;20802;-69
2021/12/14 20:05:52;;;;;;;56.30;24.40;;;7.00;99.90;;;;;;5008976;28;20422;-68
2021/12/14 20:08:23;;;;;;;46.03;23.87;;;7.10;99.90;;;;;;5007574;28;20990;-69
2021/12/14 20:10:59;;;;;;;51.80;26.30;;;7.10;99.90;;;;;;5006161;28;20812;-70
2021/12/14 20:13:26;;;;;;;66.30;27.30;;;7.20;99.90;;;;;;5008429;28;20405;-70
2021/12/14 20:15:55;;;;;;;66.20;27.37;;;7.20;99.90;;;;;;5023154;28;20459;-69
2021/12/14 20:18:25;;;;;;;57.77;26.87;;;7.20;99.90;;;;;;5027076;28;20903;-71
2021/12/14 20:20:58;;;;;;;48.47;23.63;;;7.10;99.90;;;;;;5030957;28;20530;-70
2021/12/14 20:23:29;;;;;;;53.53;25.23;;;7.20;99.90;;;;;;5038545;28;20478;-69
2021/12/14 20:25:59;;;;;;;49.93;23.90;;;7.10;99.90;;;;;;5028438;28;20898;-68
2021/12/14 20:28:37;;;;;;;58.17;26.70;;;7.10;99.90;;;;;;5026669;28;20807;-69
2021/12/14 20:31:12;;;;;;;53.87;25.13;;;7.10;99.90;;;;;;5028854;28;20444;-69
2021/12/14 20:33:44;;;;;;;51.00;25.30;;;7.10;99.90;;;;;;5029526;28;20428;-70
2021/12/14 20:36:16;;;;;;;50.27;24.27;;;7.00;99.90;;;;;;5028343;28;20811;-70
2021/12/14 20:38:45;;;;;;;55.63;24.07;;;7.00;99.90;;;;;;5029688;28;20987;-69
2021/12/14 20:41:22;;;;;;;56.33;25.73;;;7.00;99.90;;;;;;5030942;28;20436;-69
2021/12/14 20:46:38;;;;;;;57.03;25.50;;;7.00;99.90;;;;;;5012330;28;20436;-68
2021/12/14 20:49:11;;;;;;;57.77;26.00;;;7.00;99.90;;;;;;5029294;28;20416;-69
2021/12/14 20:51:38;;;;;;;63.57;26.40;;;7.00;99.90;;;;;;5037054;28;20809;-69
2021/12/14 20:54:10;;;;;;;66.40;25.73;;;7.00;99.90;;;;;;5045441;28;20408;-69
2021/12/14 20:56:38;;;;;;;58.77;26.27;;;7.00;99.90;;;;;;5035959;28;20760;-70
2021/12/14 20:59:15;;;;;;;61.87;26.70;;;7.00;99.90;;;;;;5010483;28;20474;-69
2021/12/14 21:01:44;;;;;;;68.30;25.80;;;7.00;99.90;;;;;;5042759;28;20953;-70
2021/12/14 21:04:14;;;;;;;57.60;26.57;;;7.00;99.90;;;;;;5010741;28;20572;-70
2021/12/14 21:06:46;;;;;;;65.50;25.80;;;7.00;99.90;;;;;;5017041;28;20420;-70
2021/12/14 21:09:15;;;;;;;52.00;24.90;;;7.00;99.90;;;;;;5029089;28;20575;-70
2021/12/14 21:11:56;;;;;;;50.40;24.47;;;6.90;99.90;;;;;;5030744;28;20476;-69
2021/12/14 21:14:31;;;;;;;52.23;25.07;;;7.00;99.90;;;;;;5028458;28;20439;-69
2021/12/14 21:16:58;;;;;;;57.23;25.00;;;7.00;99.90;;;;;;5020588;28;20435;-70
2021/12/14 21:19:26;;;;;;;46.73;24.97;;;7.00;99.90;;;;;;5028030;28;20977;-69
2021/12/14 21:21:54;;;;;;;50.07;27.20;;;7.00;99.90;;;;;;5035228;28;20433;-69
2021/12/14 21:24:26;;;;;;;47.80;23.00;;;7.00;99.90;;;;;;5028711;28;20464;-70
2021/12/14 21:27:05;;;;;;;48.17;24.37;;;7.00;99.90;;;;;;5029981;28;20417;-69
2021/12/14 21:29:53;;;;;;;41.87;22.47;;;7.10;99.90;;;;;;5030210;28;20490;-70
2021/12/14 21:32:26;;;;;;;49.17;23.33;;;7.10;99.90;;;;;;5028578;28;20414;-69
2021/12/14 21:34:53;;;;;;;47.20;24.77;;;7.10;99.90;;;;;;5026017;28;20962;-70
2021/12/14 21:37:19;;;;;;;43.80;23.73;;;7.10;99.90;;;;;;5029698;28;20443;-70
2021/12/14 21:39:50;;;;;;;44.80;23.53;;;7.00;99.90;;;;;;5029806;28;20424;-70
2021/12/14 21:42:29;;;;;;;45.53;24.63;;;7.00;99.90;;;;;;5030079;28;20965;-69
2021/12/14 21:45:11;;;;;;;44.57;23.30;;;7.00;99.90;;;;;;5016952;28;20424;-69
2021/12/14 21:47:36;;;;;;;45.90;23.30;;;7.00;99.90;;;;;;5029924;28;20408;-69
2021/12/14 21:50:13;;;;;;;51.50;24.60;;;7.10;99.90;;;;;;5028844;28;20431;-70
2021/12/14 21:52:41;;;;;;;65.00;26.87;;;7.10;99.90;;;;;;5031743;28;20189;-69
2021/12/14 21:55:09;;;;;;;44.93;23.27;;;7.00;99.90;;;;;;5028006;28;20595;-70
2021/12/14 21:57:46;;;;;;;46.37;22.83;;;7.00;99.90;;;;;;5029728;28;20408;-69
2021/12/14 22:00:25;;;;;;;43.30;22.90;;;7.00;99.90;;;;;;5029624;28;20443;-69
2021/12/14 22:02:53;;;;;;;49.57;24.90;;;7.00;99.90;;;;;;5029803;28;20543;-70
2021/12/14 22:05:22;;;;;;;52.43;25.40;;;7.10;99.90;;;;;;5018927;28;20440;-69
2021/12/14 22:07:49;;;;;;;53.63;25.43;;;7.00;99.90;;;;;;5009419;28;20413;-70
2021/12/14 22:10:18;;;;;;;56.37;26.40;;;7.00;99.90;;;;;;5009404;28;20429;-69
2021/12/14 22:12:46;;;;;;;51.83;25.00;;;7.00;99.90;;;;;;5010103;28;20414;-70
2021/12/14 22:15:20;;;;;;;49.90;23.90;;;7.00;99.90;;;;;;5017173;28;20529;-71
2021/12/14 22:17:46;;;;;;;40.57;21.17;;;7.10;99.90;;;;;;5028070;28;20416;-70
2021/12/14 22:20:16;;;;;;;48.57;22.30;;;7.10;99.90;;;;;;5028369;28;20459;-70
2021/12/14 22:22:43;;;;;;;47.73;23.50;;;7.10;99.90;;;;;;5039736;28;20640;-69
2021/12/14 22:25:16;;;;;;;44.27;22.47;;;7.10;99.90;;;;;;5038520;28;20421;-70
2021/12/14 22:27:42;;;;;;;39.50;21.73;;;7.10;99.90;;;;;;5029324;28;20405;-70
2021/12/14 22:30:09;;;;;;;40.87;21.80;;;7.10;99.90;;;;;;5027268;28;20444;-70
2021/12/14 22:32:36;;;;;;;46.00;21.80;;;7.10;99.90;;;;;;5026742;28;20170;-70
2021/12/14 22:35:03;;;;;;;40.30;21.30;;;7.10;99.90;;;;;;5027900;28;20420;-69
2021/12/14 22:37:30;;;;;;;45.90;21.13;;;7.20;99.90;;;;;;5028776;28;20563;-68
2021/12/14 22:39:55;;;;;;;43.33;22.60;;;7.20;99.90;;;;;;5026906;28;20452;-70
2021/12/14 22:45:05;;;;;;;41.20;21.83;;;7.20;99.90;;;;;;5020868;28;20186;-69
2021/12/14 22:47:31;;;;;;;41.43;22.80;;;7.20;99.90;;;;;;5040770;28;20421;-69
2021/12/14 22:49:57;;;;;;;44.53;21.40;;;7.10;99.90;;;;;;5040311;28;20668;-70
2021/12/14 22:52:30;;;;;;;43.17;22.27;;;7.10;99.90;;;;;;5049284;28;20174;-69